Time;durP1;ratioP1;P1;durP2;ratioP2;P2;SDS_P1;SDS_P2;PMS_P1;PMS_P2;Temp;Humidity;BMP_temperature;BMP_pressure;BME280_temperature;BME280_humidity;BME280_pressure;Samples;Min_cycle;Max_cycle;Signal;HPM_P1;HPM_P2
2023/07/16 00:00:27;;;;;;;;;;;;;;;;;;2060765;28;19910;-77
2023/07/16 00:01:48;;;;;;;;;;;;;;;;;;2063046;28;19914;-77
2023/07/16 00:03:09;;;;;;;;;;;;;;;;;;2070981;28;19972;-77
2023/07/16 00:04:30;;;;;;;;;;;;;;;;;;2073532;28;20315;-77
2023/07/16 00:05:51;;;;;;;;;;;;;;;;;;2071390;28;19906;-78
2023/07/16 00:07:11;;;;;;;;;;;;;;;;;;2065574;28;19933;-77
2023/07/16 00:08:32;;;;;;;;;;;;;;;;;;2072047;28;20265;-77
2023/07/16 00:09:53;;;;;;;;;;;;;;;;;;2064786;28;19910;-77
2023/07/16 00:11:14;;;;;;;;;;;;;;;;;;2069055;28;19920;-76
2023/07/16 00:12:34;;;;;;;;;;;;;;;;;;2075174;28;20364;-77
2023/07/16 00:13:55;;;;;;;;;;;;;;;;;;2065198;28;19913;-77
2023/07/16 00:15:16;;;;;;;;;;;;;;;;;;2065513;28;19913;-77
2023/07/16 00:16:36;;;;;;;;;;;;;;;;;;2082037;28;19913;-77
2023/07/16 00:17:57;;;;;;;;;;;;;;;;;;2064337;28;19909;-78
2023/07/16 00:19:18;;;;;;;;;;;;;;;;;;2066752;28;19912;-77
2023/07/16 00:20:39;;;;;;;;;;;;;;;;;;2073785;28;20292;-77
2023/07/16 00:21:59;;;;;;;;;;;;;;;;;;2064116;28;20999;-77
2023/07/16 00:23:20;;;;;;;;;;;;;;;;;;2062997;28;19905;-77
2023/07/16 00:24:41;;;;;;;;;;;;;;;;;;2072156;28;19917;-77
2023/07/16 00:26:02;;;;;;;;;;;;;;;;;;2072427;28;19925;-76
2023/07/16 00:27:22;;;;;;;;;;;;;;;;;;2060407;28;19909;-77
2023/07/16 00:28:43;;;;;;;;;;;;;;;;;;2059084;28;19906;-77
2023/07/16 00:30:04;;;;;;;;;;;;;;;;;;2061437;28;19906;-78
2023/07/16 00:31:25;;;;;;;;;;;;;;;;;;2062714;28;19921;-77
2023/07/16 00:32:45;;;;;;;;;;;;;;;;;;2072260;28;19913;-77
2023/07/16 00:34:06;;;;;;;;;;;;;;;;;;2065035;28;19947;-76
2023/07/16 00:35:27;;;;;;;;;;;;;;;;;;2069287;28;19945;-77
2023/07/16 00:36:47;;;;;;;;;;;;;;;;;;2065871;28;19913;-76
2023/07/16 00:38:08;;;;;;;;;;;;;;;;;;2060274;28;19929;-77
2023/07/16 00:39:29;;;;;;;;;;;;;;;;;;2064122;28;19905;-77
2023/07/16 00:40:50;;;;;;;;;;;;;;;;;;2070112;28;20276;-77
2023/07/16 00:42:10;;;;;;;;;;;;;;;;;;2066001;28;19914;-77
2023/07/16 00:43:31;;;;;;;;;;;;;;;;;;2071362;28;19920;-77
2023/07/16 00:44:52;;;;;;;;;;;;;;;;;;2060779;28;19921;-76
2023/07/16 00:46:13;;;;;;;;;;;;;;;;;;2071258;28;19909;-78
2023/07/16 00:47:33;;;;;;;;;;;;;;;;;;2068470;28;19905;-78
2023/07/16 00:48:54;;;;;;;;;;;;;;;;;;2069449;28;20285;-77
2023/07/16 00:50:15;;;;;;;;;;;;;;;;;;2068539;28;19937;-79
2023/07/16 00:51:35;;;;;;;;;;;;;;;;;;2064539;28;19956;-79
2023/07/16 00:52:56;;;;;;;;;;;;;;;;;;2063650;28;19918;-79
2023/07/16 00:54:17;;;;;;;;;;;;;;;;;;2071856;28;19910;-77
2023/07/16 00:55:38;;;;;;;;;;;;;;;;;;2064879;28;19912;-77
2023/07/16 00:56:58;;;;;;;;;;;;;;;;;;2057725;28;19932;-78
2023/07/16 00:58:19;;;;;;;;;;;;;;;;;;2064547;28;19929;-77
2023/07/16 00:59:40;;;;;;;;;;;;;;;;;;2069812;28;19925;-78
2023/07/16 01:01:01;;;;;;;;;;;;;;;;;;2062983;28;19906;-75
2023/07/16 01:02:21;;;;;;;;;;;;;;;;;;2070446;28;19913;-76
2023/07/16 01:03:42;;;;;;;;;;;;;;;;;;2075956;23;19922;-71
2023/07/16 01:05:03;;;;;;;;;;;;;;;;;;2052811;28;20031;-71
2023/07/16 01:06:23;;;;;;;;;;;;;;;;;;2060940;28;20008;-71
2023/07/16 01:07:44;;;;;;;;;;;;;;;;;;2053112;28;19914;-71
2023/07/16 01:09:05;;;;;;;;;;;;;;;;;;2055142;28;19914;-71
2023/07/16 01:10:25;;;;;;;;;;;;;;;;;;2061293;28;19905;-71
2023/07/16 01:11:46;;;;;;;;;;;;;;;;;;2060197;28;19973;-71
2023/07/16 01:13:07;;;;;;;;;;;;;;;;;;2063180;28;19918;-71
2023/07/16 01:14:28;;;;;;;;;;;;;;;;;;2063173;28;19913;-71
2023/07/16 01:15:48;;;;;;;;;;;;;;;;;;2063475;28;19910;-71
2023/07/16 01:17:09;;;;;;;;;;;;;;;;;;2057293;28;19932;-71
2023/07/16 01:18:30;;;;;;;;;;;;;;;;;;2062952;28;19936;-71
2023/07/16 01:19:50;;;;;;;;;;;;;;;;;;2055049;28;19933;-71
2023/07/16 01:21:11;;;;;;;;;;;;;;;;;;2053508;28;20561;-71
2023/07/16 01:22:32;;;;;;;;;;;;;;;;;;2060451;28;19990;-71
2023/07/16 01:23:52;;;;;;;;;;;;;;;;;;2061476;28;19969;-71
2023/07/16 01:25:13;;;;;;;;;;;;;;;;;;2053849;28;19914;-71
2023/07/16 01:26:34;;;;;;;;;;;;;;;;;;2061517;28;19913;-71
2023/07/16 01:27:54;;;;;;;;;;;;;;;;;;2064180;28;20329;-71
2023/07/16 01:29:15;;;;;;;;;;;;;;;;;;2064435;28;20303;-71
2023/07/16 01:30:36;;;;;;;;;;;;;;;;;;2061844;28;19913;-71
2023/07/16 01:31:56;;;;;;;;;;;;;;;;;;2062994;28;19913;-71
2023/07/16 01:33:17;;;;;;;;;;;;;;;;;;2063578;28;19906;-71
2023/07/16 01:34:38;;;;;;;;;;;;;;;;;;2062769;28;20325;-71
2023/07/16 01:35:59;;;;;;;;;;;;;;;;;;2064937;28;20316;-71
2023/07/16 01:37:19;;;;;;;;;;;;;;;;;;2052980;28;19913;-71
2023/07/16 01:38:40;;;;;;;;;;;;;;;;;;2053765;28;19910;-71
2023/07/16 01:40:01;;;;;;;;;;;;;;;;;;2061208;28;19906;-71
2023/07/16 01:41:21;;;;;;;;;;;;;;;;;;2052356;28;19921;-71
2023/07/16 01:42:42;;;;;;;;;;;;;;;;;;2051412;28;19921;-71
2023/07/16 01:44:03;;;;;;;;;;;;;;;;;;2053795;28;20002;-71
2023/07/16 01:45:23;;;;;;;;;;;;;;;;;;2059028;28;19929;-71
2023/07/16 01:46:44;;;;;;;;;;;;;;;;;;2063062;28;19910;-71
2023/07/16 01:48:05;;;;;;;;;;;;;;;;;;2055652;28;19906;-71
2023/07/16 01:49:25;;;;;;;;;;;;;;;;;;2059663;28;20328;-71
2023/07/16 01:50:46;;;;;;;;;;;;;;;;;;2062798;28;19917;-71
2023/07/16 01:52:07;;;;;;;;;;;;;;;;;;2063660;28;19918;-72
2023/07/16 01:53:27;;;;;;;;;;;;;;;;;;2054184;28;20380;-71
2023/07/16 01:54:48;;;;;;;;;;;;;;;;;;2055153;28;19929;-71
2023/07/16 01:56:09;;;;;;;;;;;;;;;;;;2057988;28;20276;-71
2023/07/16 01:57:30;;;;;;;;;;;;;;;;;;2058957;28;19910;-71
2023/07/16 01:58:50;;;;;;;;;;;;;;;;;;2055037;28;19906;-71
2023/07/16 02:00:11;;;;;;;;;;;;;;;;;;2058271;28;20368;-71
2023/07/16 02:01:32;;;;;;;;;;;;;;;;;;2055597;28;20005;-74
2023/07/16 02:02:52;;;;;;;;;;;;;;;;;;2054204;28;19914;-74
2023/07/16 02:04:13;;;;;;;;;;;;;;;;;;2058763;28;19925;-73
2023/07/16 02:05:34;;;;;;;;;;;;;;;;;;2061917;28;19910;-72
2023/07/16 02:06:54;;;;;;;;;;;;;;;;;;2060578;28;19968;-72
2023/07/16 02:08:15;;;;;;;;;;;;;;;;;;2063665;28;19906;-72
2023/07/16 02:09:36;;;;;;;;;;;;;;;;;;2062367;28;20324;-72
2023/07/16 02:10:56;;;;;;;;;;;;;;;;;;2065092;28;19921;-72
2023/07/16 02:12:17;;;;;;;;;;;;;;;;;;2056429;28;20316;-72
2023/07/16 02:13:38;;;;;;;;;;;;;;;;;;2048896;28;19914;-72
2023/07/16 02:14:58;;;;;;;;;;;;;;;;;;2061108;28;19997;-72
2023/07/16 02:16:19;;;;;;;;;;;;;;;;;;2054324;28;19910;-72
2023/07/16 02:17:40;;;;;;;;;;;;;;;;;;2055052;28;19929;-72
2023/07/16 02:19:00;;;;;;;;;;;;;;;;;;2050035;28;19934;-72
2023/07/16 02:20:21;;;;;;;;;;;;;;;;;;2058809;28;19905;-72
2023/07/16 02:21:42;;;;;;;;;;;;;;;;;;2054526;28;19965;-72
2023/07/16 02:23:02;;;;;;;;;;;;;;;;;;2058178;28;19925;-72
2023/07/16 02:24:23;;;;;;;;;;;;;;;;;;2053266;28;20369;-72
2023/07/16 02:25:44;;;;;;;;;;;;;;;;;;2051879;28;19921;-72
2023/07/16 02:27:05;;;;;;;;;;;;;;;;;;2054825;28;20372;-72
2023/07/16 02:28:25;;;;;;;;;;;;;;;;;;2056975;28;19906;-72
2023/07/16 02:29:46;;;;;;;;;;;;;;;;;;2053739;28;19933;-72
2023/07/16 02:31:07;;;;;;;;;;;;;;;;;;2056728;28;19906;-72
2023/07/16 02:32:27;;;;;;;;;;;;;;;;;;2064073;28;19925;-72
2023/07/16 02:33:48;;;;;;;;;;;;;;;;;;2057034;28;19928;-72
2023/07/16 02:35:09;;;;;;;;;;;;;;;;;;2059849;28;19979;-72
2023/07/16 02:36:29;;;;;;;;;;;;;;;;;;2054974;28;19914;-72
2023/07/16 02:37:50;;;;;;;;;;;;;;;;;;2061942;28;19913;-72
2023/07/16 02:39:11;;;;;;;;;;;;;;;;;;2064137;28;19917;-71
2023/07/16 02:40:31;;;;;;;;;;;;;;;;;;2054274;28;19906;-72
2023/07/16 02:41:52;;;;;;;;;;;;;;;;;;2068870;28;19960;-72
2023/07/16 02:43:13;;;;;;;;;;;;;;;;;;2066628;28;19914;-71
2023/07/16 02:44:34;;;;;;;;;;;;;;;;;;2063772;28;19906;-71
2023/07/16 02:45:54;;;;;;;;;;;;;;;;;;2065198;28;19909;-71
2023/07/16 02:47:15;;;;;;;;;;;;;;;;;;2056438;28;20245;-72
2023/07/16 02:48:36;;;;;;;;;;;;;;;;;;2061553;28;19912;-72
2023/07/16 02:49:56;;;;;;;;;;;;;;;;;;2063769;28;19905;-72
2023/07/16 02:51:17;;;;;;;;;;;;;;;;;;2065578;28;19913;-72
2023/07/16 02:52:38;;;;;;;;;;;;;;;;;;2063915;28;20446;-72
2023/07/16 02:53:58;;;;;;;;;;;;;;;;;;2063370;28;19929;-72
2023/07/16 02:55:19;;;;;;;;;;;;;;;;;;2063548;28;20260;-72
2023/07/16 02:56:40;;;;;;;;;;;;;;;;;;2064098;28;19906;-71
2023/07/16 02:58:04;;;;;;;;;;;;;;;;;;2062409;28;19906;-72
2023/07/16 02:59:25;;;;;;;;;;;;;;;;;;2067325;28;19913;-72
2023/07/16 03:00:46;;;;;;;;;;;;;;;;;;2055970;28;19906;-72
2023/07/16 03:02:06;;;;;;;;;;;;;;;;;;2054473;28;19965;-71
2023/07/16 03:03:27;;;;;;;;;;;;;;;;;;2062157;28;19973;-72
2023/07/16 03:04:48;;;;;;;;;;;;;;;;;;2063655;28;20323;-72
2023/07/16 03:06:09;;;;;;;;;;;;;;;;;;2056618;28;19910;-71
2023/07/16 03:07:29;;;;;;;;;;;;;;;;;;2056378;28;20360;-71
2023/07/16 03:08:50;;;;;;;;;;;;;;;;;;2070984;28;19905;-72
2023/07/16 03:10:11;;;;;;;;;;;;;;;;;;2065993;28;20394;-71
2023/07/16 03:11:31;;;;;;;;;;;;;;;;;;2065520;28;19985;-71
2023/07/16 03:12:52;;;;;;;;;;;;;;;;;;2063887;28;19914;-71
2023/07/16 03:14:13;;;;;;;;;;;;;;;;;;2064312;28;19913;-71
2023/07/16 03:15:33;;;;;;;;;;;;;;;;;;2065601;28;19909;-71
2023/07/16 03:16:54;;;;;;;;;;;;;;;;;;2057740;28;19906;-71
2023/07/16 03:18:15;;;;;;;;;;;;;;;;;;2064831;28;20359;-71
2023/07/16 03:19:35;;;;;;;;;;;;;;;;;;2052613;28;19910;-71
2023/07/16 03:20:56;;;;;;;;;;;;;;;;;;2060693;28;19905;-71
2023/07/16 03:22:17;;;;;;;;;;;;;;;;;;2058192;28;19905;-71
2023/07/16 03:23:37;;;;;;;;;;;;;;;;;;2056870;28;20225;-72
2023/07/16 03:24:58;;;;;;;;;;;;;;;;;;2055591;28;20353;-71
2023/07/16 03:26:19;;;;;;;;;;;;;;;;;;2059280;28;19977;-71
2023/07/16 03:27:39;;;;;;;;;;;;;;;;;;2064258;28;19906;-71
2023/07/16 03:29:00;;;;;;;;;;;;;;;;;;2055460;28;19917;-71
2023/07/16 03:30:21;;;;;;;;;;;;;;;;;;2062199;28;19929;-71
2023/07/16 03:31:41;;;;;;;;;;;;;;;;;;2061979;28;19910;-72
2023/07/16 03:33:02;;;;;;;;;;;;;;;;;;2064263;28;20392;-71
2023/07/16 03:34:23;;;;;;;;;;;;;;;;;;2064296;28;20273;-71
2023/07/16 03:35:44;;;;;;;;;;;;;;;;;;2064778;28;19906;-71
2023/07/16 03:37:05;;;;;;;;;;;;;;;;;;2057339;28;19910;-71
2023/07/16 03:38:25;;;;;;;;;;;;;;;;;;2048973;29;19910;-71
2023/07/16 03:39:46;;;;;;;;;;;;;;;;;;2062368;28;20284;-72
2023/07/16 03:41:07;;;;;;;;;;;;;;;;;;2062362;28;20013;-71
2023/07/16 03:42:27;;;;;;;;;;;;;;;;;;2062812;28;19906;-72
2023/07/16 03:43:48;;;;;;;;;;;;;;;;;;2064448;28;19988;-72
2023/07/16 03:45:09;;;;;;;;;;;;;;;;;;2056113;28;19906;-72
2023/07/16 03:46:29;;;;;;;;;;;;;;;;;;2062728;28;19906;-71
2023/07/16 03:47:50;;;;;;;;;;;;;;;;;;2061063;28;19914;-72
2023/07/16 03:49:12;;;;;;;;;;;;;;;;;;2061885;28;19913;-71
2023/07/16 03:50:32;;;;;;;;;;;;;;;;;;2062273;28;19986;-71
2023/07/16 03:51:53;;;;;;;;;;;;;;;;;;2056197;28;19906;-71
2023/07/16 03:53:14;;;;;;;;;;;;;;;;;;2056137;28;20296;-71
2023/07/16 03:54:34;;;;;;;;;;;;;;;;;;2062518;28;19905;-72
2023/07/16 03:55:55;;;;;;;;;;;;;;;;;;2065136;28;19921;-71
2023/07/16 03:57:16;;;;;;;;;;;;;;;;;;2064249;28;19906;-72
2023/07/16 03:58:36;;;;;;;;;;;;;;;;;;2063252;28;19916;-72
2023/07/16 03:59:57;;;;;;;;;;;;;;;;;;2062713;28;20241;-72
2023/07/16 04:01:18;;;;;;;;;;;;;;;;;;2063401;28;19936;-72
2023/07/16 04:02:38;;;;;;;;;;;;;;;;;;2056363;28;19917;-72
2023/07/16 04:03:59;;;;;;;;;;;;;;;;;;2054105;28;19975;-71
2023/07/16 04:05:20;;;;;;;;;;;;;;;;;;2061857;28;19905;-72
2023/07/16 04:06:40;;;;;;;;;;;;;;;;;;2054715;28;20350;-72
2023/07/16 04:08:01;;;;;;;;;;;;;;;;;;2061991;28;19909;-71
2023/07/16 04:09:22;;;;;;;;;;;;;;;;;;2063366;28;19910;-72
2023/07/16 04:10:43;;;;;;;;;;;;;;;;;;2063048;28;19910;-72
2023/07/16 04:12:03;;;;;;;;;;;;;;;;;;2062997;28;20299;-72
2023/07/16 04:13:24;;;;;;;;;;;;;;;;;;2063439;28;19921;-72
2023/07/16 04:14:45;;;;;;;;;;;;;;;;;;2062186;28;20384;-72
2023/07/16 04:16:05;;;;;;;;;;;;;;;;;;2061090;28;19925;-71
2023/07/16 04:17:26;;;;;;;;;;;;;;;;;;2064170;28;20388;-72
2023/07/16 04:18:47;;;;;;;;;;;;;;;;;;2065271;28;19928;-71
2023/07/16 04:20:07;;;;;;;;;;;;;;;;;;2062495;28;19916;-72
2023/07/16 04:21:28;;;;;;;;;;;;;;;;;;2053015;28;19914;-72
2023/07/16 04:22:49;;;;;;;;;;;;;;;;;;2053039;28;20381;-72
2023/07/16 04:24:09;;;;;;;;;;;;;;;;;;2049374;28;19921;-71
2023/07/16 04:25:30;;;;;;;;;;;;;;;;;;2062589;28;20353;-72
2023/07/16 04:26:51;;;;;;;;;;;;;;;;;;2057250;28;19906;-72
2023/07/16 04:28:11;;;;;;;;;;;;;;;;;;2064833;28;19905;-72
2023/07/16 04:29:32;;;;;;;;;;;;;;;;;;2063777;28;19906;-72
2023/07/16 04:30:53;;;;;;;;;;;;;;;;;;2063152;28;19905;-72
2023/07/16 04:32:14;;;;;;;;;;;;;;;;;;2055878;28;19906;-72
2023/07/16 04:33:34;;;;;;;;;;;;;;;;;;2054886;28;19914;-72
2023/07/16 04:34:55;;;;;;;;;;;;;;;;;;2052654;28;19917;-72
2023/07/16 04:36:16;;;;;;;;;;;;;;;;;;2057729;28;20365;-72
2023/07/16 04:37:36;;;;;;;;;;;;;;;;;;2064143;28;19992;-72
2023/07/16 04:38:57;;;;;;;;;;;;;;;;;;2063380;28;19918;-72
2023/07/16 04:40:18;;;;;;;;;;;;;;;;;;2061783;28;19906;-72
2023/07/16 04:41:38;;;;;;;;;;;;;;;;;;2062241;28;19960;-72
2023/07/16 04:42:59;;;;;;;;;;;;;;;;;;2063338;28;19910;-74
2023/07/16 04:44:20;;;;;;;;;;;;;;;;;;2058503;28;19929;-72
2023/07/16 04:45:40;;;;;;;;;;;;;;;;;;2061915;28;19913;-72
2023/07/16 04:47:01;;;;;;;;;;;;;;;;;;2055131;28;19910;-72
2023/07/16 04:48:22;;;;;;;;;;;;;;;;;;2053968;28;20293;-72
2023/07/16 04:49:42;;;;;;;;;;;;;;;;;;2054261;28;19905;-72
2023/07/16 04:51:03;;;;;;;;;;;;;;;;;;2057709;28;19909;-72
2023/07/16 04:52:24;;;;;;;;;;;;;;;;;;2063160;28;20303;-72
2023/07/16 04:53:45;;;;;;;;;;;;;;;;;;2063014;28;19936;-72
2023/07/16 04:55:05;;;;;;;;;;;;;;;;;;2059964;28;19918;-72
2023/07/16 04:56:26;;;;;;;;;;;;;;;;;;2063005;28;19906;-72
2023/07/16 04:57:47;;;;;;;;;;;;;;;;;;2065152;28;19905;-71
2023/07/16 04:59:07;;;;;;;;;;;;;;;;;;2059853;28;19917;-72
2023/07/16 05:00:28;;;;;;;;;;;;;;;;;;2061304;28;19993;-72
2023/07/16 05:01:49;;;;;;;;;;;;;;;;;;2056855;28;19917;-72
2023/07/16 05:03:09;;;;;;;;;;;;;;;;;;2058593;28;20314;-72
2023/07/16 05:04:30;;;;;;;;;;;;;;;;;;2063382;28;20237;-72
2023/07/16 05:05:51;;;;;;;;;;;;;;;;;;2059223;28;19906;-72
2023/07/16 05:07:11;;;;;;;;;;;;;;;;;;2063308;28;19917;-72
2023/07/16 05:08:32;;;;;;;;;;;;;;;;;;2055417;28;19906;-72
2023/07/16 05:09:53;;;;;;;;;;;;;;;;;;2054616;28;19910;-72
2023/07/16 05:11:13;;;;;;;;;;;;;;;;;;2058750;28;19918;-72
2023/07/16 05:12:34;;;;;;;;;;;;;;;;;;2060840;28;19952;-72
2023/07/16 05:13:55;;;;;;;;;;;;;;;;;;2060699;28;19993;-72
2023/07/16 05:15:16;;;;;;;;;;;;;;;;;;2054537;28;19910;-72
2023/07/16 05:16:37;;;;;;;;;;;;;;;;;;2061255;28;20328;-72
2023/07/16 05:17:58;;;;;;;;;;;;;;;;;;2056972;28;19906;-72
2023/07/16 05:19:18;;;;;;;;;;;;;;;;;;2050607;28;19914;-72
2023/07/16 05:20:39;;;;;;;;;;;;;;;;;;2059288;28;19936;-72
2023/07/16 05:22:00;;;;;;;;;;;;;;;;;;2052420;28;19907;-72
2023/07/16 05:23:20;;;;;;;;;;;;;;;;;;2053371;28;19914;-71
2023/07/16 05:24:41;;;;;;;;;;;;;;;;;;2054080;28;20257;-72
2023/07/16 05:26:02;;;;;;;;;;;;;;;;;;2057709;28;20281;-72
2023/07/16 05:27:22;;;;;;;;;;;;;;;;;;2055811;28;19986;-71
2023/07/16 05:28:43;;;;;;;;;;;;;;;;;;2061415;28;19994;-72
2023/07/16 05:30:04;;;;;;;;;;;;;;;;;;2047290;29;19907;-71
2023/07/16 05:31:24;;;;;;;;;;;;;;;;;;2069068;28;19909;-72
2023/07/16 05:32:45;;;;;;;;;;;;;;;;;;2072446;28;19953;-71
2023/07/16 05:34:07;;;;;;;;;;;;;;;;;;2069316;28;19917;-72
2023/07/16 05:35:28;;;;;;;;;;;;;;;;;;2056092;28;20415;-72
2023/07/16 05:36:48;;;;;;;;;;;;;;;;;;2047436;29;20357;-71
2023/07/16 05:38:09;;;;;;;;;;;;;;;;;;2052918;28;19913;-71
2023/07/16 05:39:30;;;;;;;;;;;;;;;;;;2061005;28;19905;-71
2023/07/16 05:40:50;;;;;;;;;;;;;;;;;;2057864;28;19929;-71
2023/07/16 05:42:11;;;;;;;;;;;;;;;;;;2064510;28;19910;-71
2023/07/16 05:43:32;;;;;;;;;;;;;;;;;;2064287;28;19989;-71
2023/07/16 05:44:53;;;;;;;;;;;;;;;;;;2056556;28;20357;-71
2023/07/16 05:46:14;;;;;;;;;;;;;;;;;;2060294;28;19906;-71
2023/07/16 05:47:34;;;;;;;;;;;;;;;;;;2057229;28;20270;-71
2023/07/16 05:48:55;;;;;;;;;;;;;;;;;;2068078;28;20434;-71
2023/07/16 05:50:16;;;;;;;;;;;;;;;;;;2072316;28;19921;-70
2023/07/16 05:51:36;;;;;;;;;;;;;;;;;;2064364;28;19905;-71
2023/07/16 05:52:57;;;;;;;;;;;;;;;;;;2064627;28;19910;-71
2023/07/16 05:54:18;;;;;;;;;;;;;;;;;;2068601;28;19913;-71
2023/07/16 05:55:38;;;;;;;;;;;;;;;;;;2059532;28;19910;-71
2023/07/16 05:57:00;;;;;;;;;;;;;;;;;;2064235;28;19906;-71
2023/07/16 05:58:21;;;;;;;;;;;;;;;;;;2071320;28;20280;-71
2023/07/16 05:59:41;;;;;;;;;;;;;;;;;;2070839;28;19913;-71
2023/07/16 06:01:02;;;;;;;;;;;;;;;;;;2072060;28;19914;-71
2023/07/16 06:02:23;;;;;;;;;;;;;;;;;;2073302;28;19928;-68
2023/07/16 06:03:43;;;;;;;;;;;;;;;;;;2071432;28;20431;-71
2023/07/16 06:05:04;;;;;;;;;;;;;;;;;;2069179;28;19905;-70
2023/07/16 06:06:25;;;;;;;;;;;;;;;;;;2065644;28;19906;-71
2023/07/16 06:07:45;;;;;;;;;;;;;;;;;;2068151;28;19925;-71
2023/07/16 06:09:06;;;;;;;;;;;;;;;;;;2069527;28;20356;-71
2023/07/16 06:10:27;;;;;;;;;;;;;;;;;;2061265;28;20393;-71
2023/07/16 06:11:47;;;;;;;;;;;;;;;;;;2062560;28;19988;-71
2023/07/16 06:13:08;;;;;;;;;;;;;;;;;;2065501;28;19914;-71
2023/07/16 06:14:29;;;;;;;;;;;;;;;;;;2069947;28;19913;-70
2023/07/16 06:15:50;;;;;;;;;;;;;;;;;;2059557;28;19913;-71
2023/07/16 06:17:10;;;;;;;;;;;;;;;;;;2070836;28;19909;-71
2023/07/16 06:18:31;;;;;;;;;;;;;;;;;;2066028;28;19905;-71
2023/07/16 06:19:52;;;;;;;;;;;;;;;;;;2070570;28;19906;-72
2023/07/16 06:21:12;;;;;;;;;;;;;;;;;;2071375;28;20348;-71
2023/07/16 06:22:33;;;;;;;;;;;;;;;;;;2078842;28;19905;-71
2023/07/16 06:23:54;;;;;;;;;;;;;;;;;;2071916;28;19914;-71
2023/07/16 06:25:14;;;;;;;;;;;;;;;;;;2070239;28;20312;-70
2023/07/16 06:26:36;;;;;;;;;;;;;;;;;;2072592;28;19910;-70
2023/07/16 06:27:56;;;;;;;;;;;;;;;;;;2064213;28;19984;-70
2023/07/16 06:29:17;;;;;;;;;;;;;;;;;;2068973;28;19905;-71
2023/07/16 06:30:38;;;;;;;;;;;;;;;;;;2073113;28;19932;-71
2023/07/16 06:31:59;;;;;;;;;;;;;;;;;;2072488;28;19913;-71
2023/07/16 06:33:20;;;;;;;;;;;;;;;;;;2071812;28;20031;-71
2023/07/16 06:34:41;;;;;;;;;;;;;;;;;;2071387;28;19940;-71
2023/07/16 06:36:01;;;;;;;;;;;;;;;;;;2069831;28;19968;-70
2023/07/16 06:37:23;;;;;;;;;;;;;;;;;;2073666;28;19913;-71
2023/07/16 06:38:44;;;;;;;;;;;;;;;;;;2072110;28;19906;-70
2023/07/16 06:40:05;;;;;;;;;;;;;;;;;;2060946;28;19910;-71
2023/07/16 06:41:26;;;;;;;;;;;;;;;;;;2070059;28;19913;-71
2023/07/16 06:42:46;;;;;;;;;;;;;;;;;;2073754;28;19912;-71
2023/07/16 06:44:07;;;;;;;;;;;;;;;;;;2062496;28;19910;-70
2023/07/16 06:45:28;;;;;;;;;;;;;;;;;;2068502;28;19905;-71
2023/07/16 06:46:48;;;;;;;;;;;;;;;;;;2065376;28;19989;-71
2023/07/16 06:48:09;;;;;;;;;;;;;;;;;;2066658;28;19905;-71
2023/07/16 06:49:30;;;;;;;;;;;;;;;;;;2071688;28;19985;-71
2023/07/16 06:50:51;;;;;;;;;;;;;;;;;;2067760;28;19963;-71
2023/07/16 06:52:12;;;;;;;;;;;;;;;;;;2064349;28;19917;-72
2023/07/16 06:53:32;;;;;;;;;;;;;;;;;;2061118;28;19920;-71
2023/07/16 06:54:53;;;;;;;;;;;;;;;;;;2069391;28;19913;-71
2023/07/16 06:56:14;;;;;;;;;;;;;;;;;;2071520;28;19917;-71
2023/07/16 06:57:34;;;;;;;;;;;;;;;;;;2063535;28;19910;-71
2023/07/16 06:58:55;;;;;;;;;;;;;;;;;;2061062;28;20349;-71
2023/07/16 07:00:16;;;;;;;;;;;;;;;;;;2059800;28;19910;-71
2023/07/16 07:01:37;;;;;;;;;;;;;;;;;;2070165;28;19909;-71
2023/07/16 07:02:57;;;;;;;;;;;;;;;;;;2063462;28;19913;-71
2023/07/16 07:04:18;;;;;;;;;;;;;;;;;;2069827;28;19925;-71
2023/07/16 07:05:39;;;;;;;;;;;;;;;;;;2072069;28;19932;-71
2023/07/16 07:07:00;;;;;;;;;;;;;;;;;;2072690;28;19906;-71
2023/07/16 07:08:20;;;;;;;;;;;;;;;;;;2071687;28;19905;-71
2023/07/16 07:09:41;;;;;;;;;;;;;;;;;;2071271;28;20220;-71
2023/07/16 07:11:02;;;;;;;;;;;;;;;;;;2063628;28;19993;-71
2023/07/16 07:12:22;;;;;;;;;;;;;;;;;;2070315;28;19925;-71
2023/07/16 07:13:43;;;;;;;;;;;;;;;;;;2072604;28;19909;-71
2023/07/16 07:15:04;;;;;;;;;;;;;;;;;;2070888;28;19943;-71
2023/07/16 07:16:24;;;;;;;;;;;;;;;;;;2062695;28;20048;-70
2023/07/16 07:17:46;;;;;;;;;;;;;;;;;;2069716;28;19905;-71
2023/07/16 07:19:06;;;;;;;;;;;;;;;;;;2071902;28;19905;-71
2023/07/16 07:20:27;;;;;;;;;;;;;;;;;;2071854;28;19905;-71
2023/07/16 07:21:48;;;;;;;;;;;;;;;;;;2070961;28;19909;-71
2023/07/16 07:23:09;;;;;;;;;;;;;;;;;;2072572;28;19906;-70
2023/07/16 07:24:29;;;;;;;;;;;;;;;;;;2070950;28;20368;-71
2023/07/16 07:25:51;;;;;;;;;;;;;;;;;;2063456;28;19914;-71
2023/07/16 07:27:11;;;;;;;;;;;;;;;;;;2069950;28;19905;-71
2023/07/16 07:28:32;;;;;;;;;;;;;;;;;;2073359;28;20375;-71
2023/07/16 07:29:55;;;;;;;;;;;;;;;;;;2070976;28;20309;-73
2023/07/16 07:31:15;;;;;;;;;;;;;;;;;;2071749;28;19989;-73
2023/07/16 07:32:36;;;;;;;;;;;;;;;;;;2062337;28;19913;-73
2023/07/16 07:33:57;;;;;;;;;;;;;;;;;;2067163;28;19912;-73
2023/07/16 07:35:17;;;;;;;;;;;;;;;;;;2063065;28;19916;-73
2023/07/16 07:36:38;;;;;;;;;;;;;;;;;;2060603;28;20309;-73
2023/07/16 07:37:59;;;;;;;;;;;;;;;;;;2068620;28;19913;-73
2023/07/16 07:39:20;;;;;;;;;;;;;;;;;;2070968;28;19928;-73
2023/07/16 07:40:40;;;;;;;;;;;;;;;;;;2064037;28;19906;-73
2023/07/16 07:42:01;;;;;;;;;;;;;;;;;;2069193;28;19906;-73
2023/07/16 07:43:22;;;;;;;;;;;;;;;;;;2068595;28;19910;-74
2023/07/16 07:44:42;;;;;;;;;;;;;;;;;;2070879;28;19926;-73
2023/07/16 07:46:03;;;;;;;;;;;;;;;;;;2072293;28;19909;-74
2023/07/16 07:47:24;;;;;;;;;;;;;;;;;;2063655;28;19906;-73
2023/07/16 07:48:44;;;;;;;;;;;;;;;;;;2064387;28;19905;-72
2023/07/16 07:50:05;;;;;;;;;;;;;;;;;;2069619;28;19905;-73
2023/07/16 07:51:26;;;;;;;;;;;;;;;;;;2062564;28;20712;-73
2023/07/16 07:52:46;;;;;;;;;;;;;;;;;;2068962;28;19913;-73
2023/07/16 07:54:07;;;;;;;;;;;;;;;;;;2061146;28;19952;-73
2023/07/16 07:55:28;;;;;;;;;;;;;;;;;;2069746;28;19913;-73
2023/07/16 07:56:49;;;;;;;;;;;;;;;;;;2072538;28;19985;-74
2023/07/16 07:58:09;;;;;;;;;;;;;;;;;;2080622;28;20430;-73
2023/07/16 07:59:30;;;;;;;;;;;;;;;;;;2071541;28;20244;-74
2023/07/16 08:00:51;;;;;;;;;;;;;;;;;;2061866;28;19910;-73
2023/07/16 08:02:11;;;;;;;;;;;;;;;;;;2059630;28;19910;-74
2023/07/16 08:03:32;;;;;;;;;;;;;;;;;;2069492;28;20564;-73
2023/07/16 08:04:53;;;;;;;;;;;;;;;;;;2069728;28;19921;-73
2023/07/16 08:06:13;;;;;;;;;;;;;;;;;;2063303;28;20329;-74
2023/07/16 08:07:34;;;;;;;;;;;;;;;;;;2069736;28;19909;-73
2023/07/16 08:08:55;;;;;;;;;;;;;;;;;;2071233;28;19905;-73
2023/07/16 08:10:15;;;;;;;;;;;;;;;;;;2071139;28;19918;-73
2023/07/16 08:11:36;;;;;;;;;;;;;;;;;;2071967;28;20368;-73
2023/07/16 08:12:57;;;;;;;;;;;;;;;;;;2072215;28;20221;-73
2023/07/16 08:14:17;;;;;;;;;;;;;;;;;;2066755;28;19944;-74
2023/07/16 08:15:38;;;;;;;;;;;;;;;;;;2070858;28;19920;-74
2023/07/16 08:16:59;;;;;;;;;;;;;;;;;;2069730;28;20237;-74
2023/07/16 08:18:19;;;;;;;;;;;;;;;;;;2068194;28;19909;-74
2023/07/16 08:19:40;;;;;;;;;;;;;;;;;;2068692;28;19933;-74
2023/07/16 08:21:01;;;;;;;;;;;;;;;;;;2069335;28;19985;-74
2023/07/16 08:22:23;;;;;;;;;;;;;;;;;;2061657;28;19997;-74
2023/07/16 08:23:44;;;;;;;;;;;;;;;;;;2068107;28;19916;-73
2023/07/16 08:25:05;;;;;;;;;;;;;;;;;;2068541;28;20410;-74
2023/07/16 08:26:25;;;;;;;;;;;;;;;;;;2071421;28;19906;-74
2023/07/16 08:27:46;;;;;;;;;;;;;;;;;;2072226;28;19913;-73
2023/07/16 08:29:07;;;;;;;;;;;;;;;;;;2063036;28;19996;-72
2023/07/16 08:30:27;;;;;;;;;;;;;;;;;;2068840;28;19910;-74
2023/07/16 08:31:48;;;;;;;;;;;;;;;;;;2074007;28;19910;-74
2023/07/16 08:33:09;;;;;;;;;;;;;;;;;;2080276;28;19909;-74
2023/07/16 08:34:30;;;;;;;;;;;;;;;;;;2073887;28;19920;-73
2023/07/16 08:35:51;;;;;;;;;;;;;;;;;;2063614;28;19916;-74
2023/07/16 08:37:11;;;;;;;;;;;;;;;;;;2068913;28;19913;-74
2023/07/16 08:38:32;;;;;;;;;;;;;;;;;;2071539;28;19917;-74
2023/07/16 08:39:56;;;;;;;;;;;;;;;;;;2071780;28;20279;-73
2023/07/16 08:41:16;;;;;;;;;;;;;;;;;;2071310;28;19916;-74
2023/07/16 08:42:37;;;;;;;;;;;;;;;;;;2069986;28;20102;-74
2023/07/16 08:43:58;;;;;;;;;;;;;;;;;;2070337;28;20461;-74
2023/07/16 08:45:19;;;;;;;;;;;;;;;;;;2067549;28;19913;-73
2023/07/16 08:46:39;;;;;;;;;;;;;;;;;;2063782;28;19916;-74
2023/07/16 08:48:00;;;;;;;;;;;;;;;;;;2069431;28;19972;-74
2023/07/16 08:49:21;;;;;;;;;;;;;;;;;;2062560;28;19905;-74
2023/07/16 08:50:41;;;;;;;;;;;;;;;;;;2069315;28;19932;-74
2023/07/16 08:52:02;;;;;;;;;;;;;;;;;;2072140;28;19917;-74
2023/07/16 08:53:23;;;;;;;;;;;;;;;;;;2063101;28;19910;-74
2023/07/16 08:54:44;;;;;;;;;;;;;;;;;;2066576;28;20120;-74
2023/07/16 08:56:05;;;;;;;;;;;;;;;;;;2072164;28;20377;-74
2023/07/16 08:57:26;;;;;;;;;;;;;;;;;;2068058;28;19917;-75
2023/07/16 08:58:46;;;;;;;;;;;;;;;;;;2071448;28;19909;-74
2023/07/16 09:00:07;;;;;;;;;;;;;;;;;;2070419;28;19910;-74
2023/07/16 09:01:28;;;;;;;;;;;;;;;;;;2055442;28;19913;-74
2023/07/16 09:02:48;;;;;;;;;;;;;;;;;;2065055;28;20252;-74
2023/07/16 09:04:09;;;;;;;;;;;;;;;;;;2071276;28;19918;-74
2023/07/16 09:05:30;;;;;;;;;;;;;;;;;;2068774;28;19914;-74
2023/07/16 09:06:51;;;;;;;;;;;;;;;;;;2064775;28;19913;-73
2023/07/16 09:08:13;;;;;;;;;;;;;;;;;;2065004;28;19905;-74
2023/07/16 09:09:33;;;;;;;;;;;;;;;;;;2068984;28;19905;-74
2023/07/16 09:10:54;;;;;;;;;;;;;;;;;;2072055;28;19912;-73